sensor_id;sensor_type;location;lat;lon;timestamp;pressure;altitude;pressure_sealevel;temperature;humidity
68594;BME280;55563;52.416;13.548;2023-03-01T00:00:34;102714.97;;;-2.90;100.00
68594;BME280;55563;52.416;13.548;2023-03-01T00:02:35;102715.22;;;-2.93;100.00
68594;BME280;55563;52.416;13.548;2023-03-01T00:04:36;102712.06;;;-2.96;100.00
68594;BME280;55563;52.416;13.548;2023-03-01T00:06:37;102706.34;;;-3.00;100.00
68594;BME280;55563;52.416;13.548;2023-03-01T00:08:38;102700.63;;;-3.03;100.00
68594;BME280;55563;52.416;13.548;2023-03-01T00:10:39;102699.56;;;-3.01;100.00
68594;BME280;55563;52.416;13.548;2023-03-01T00:12:39;102696.03;;;-3.00;100.00
68594;BME280;55563;52.416;13.548;2023-03-01T00:14:40;102700.00;;;-2.96;100.00
68594;BME280;55563;52.416;13.548;2023-03-01T00:16:42;102688.22;;;-2.98;100.00
68594;BME280;55563;52.416;13.548;2023-03-01T00:18:43;102690.19;;;-3.02;100.00
68594;BME280;55563;52.416;13.548;2023-03-01T00:20:52;102699.09;;;-3.06;100.00
68594;BME280;55563;52.416;13.548;2023-03-01T00:22:53;102683.28;;;-3.01;100.00
68594;BME280;55563;52.416;13.548;2023-03-01T00:24:54;102685.19;;;-3.03;100.00
68594;BME280;55563;52.416;13.548;2023-03-01T00:26:55;102694.53;;;-3.02;100.00
68594;BME280;55563;52.416;13.548;2023-03-01T00:28:56;102680.50;;;-3.10;100.00
68594;BME280;55563;52.416;13.548;2023-03-01T00:31:07;102692.34;;;-3.18;100.00
68594;BME280;55563;52.416;13.548;2023-03-01T00:33:08;102690.78;;;-3.10;100.00
68594;BME280;55563;52.416;13.548;2023-03-01T00:35:09;102682.03;;;-3.07;100.00
68594;BME280;55563;52.416;13.548;2023-03-01T00:37:09;102676.09;;;-3.41;100.00
68594;BME280;55563;52.416;13.548;2023-03-01T00:39:14;102670.72;;;-3.27;100.00
68594;BME280;55563;52.416;13.548;2023-03-01T00:41:16;102681.34;;;-3.31;100.00
68594;BME280;55563;52.416;13.548;2023-03-01T00:43:18;102679.47;;;-3.29;100.00
68594;BME280;55563;52.416;13.548;2023-03-01T00:45:19;102675.63;;;-3.46;100.00
68594;BME280;55563;52.416;13.548;2023-03-01T00:47:19;102679.38;;;-3.28;100.00
68594;BME280;55563;52.416;13.548;2023-03-01T00:49:20;102675.63;;;-3.24;100.00
68594;BME280;55563;52.416;13.548;2023-03-01T00:51:24;102673.88;;;-3.23;100.00
68594;BME280;55563;52.416;13.548;2023-03-01T00:53:25;102674.69;;;-3.23;100.00
68594;BME280;55563;52.416;13.548;2023-03-01T00:55:26;102669.19;;;-3.29;100.00
68594;BME280;55563;52.416;13.548;2023-03-01T00:57:27;102673.75;;;-3.44;100.00
68594;BME280;55563;52.416;13.548;2023-03-01T00:59:28;102666.16;;;-3.34;100.00
68594;BME280;55563;52.416;13.548;2023-03-01T01:01:30;102674.09;;;-3.37;100.00
68594;BME280;55563;52.416;13.548;2023-03-01T01:03:31;102672.47;;;-3.49;100.00
68594;BME280;55563;52.416;13.548;2023-03-01T01:05:34;102678.63;;;-3.63;100.00
68594;BME280;55563;52.416;13.548;2023-03-01T01:07:35;102673.88;;;-3.57;100.00
68594;BME280;55563;52.416;13.548;2023-03-01T01:09:37;102669.53;;;-3.45;100.00
68594;BME280;55563;52.416;13.548;2023-03-01T01:11:38;102662.88;;;-3.47;100.00
68594;BME280;55563;52.416;13.548;2023-03-01T01:13:39;102658.09;;;-3.52;100.00
68594;BME280;55563;52.416;13.548;2023-03-01T01:15:41;102663.81;;;-3.60;100.00
68594;BME280;55563;52.416;13.548;2023-03-01T01:17:42;102654.69;;;-3.64;100.00
68594;BME280;55563;52.416;13.548;2023-03-01T01:19:42;102656.22;;;-3.61;100.00
68594;BME280;55563;52.416;13.548;2023-03-01T01:21:44;102653.31;;;-3.57;100.00
68594;BME280;55563;52.416;13.548;2023-03-01T01:23:46;102651.06;;;-3.50;100.00
68594;BME280;55563;52.416;13.548;2023-03-01T01:25:47;102644.69;;;-3.56;100.00
68594;BME280;55563;52.416;13.548;2023-03-01T01:27:47;102654.00;;;-3.66;100.00
68594;BME280;55563;52.416;13.548;2023-03-01T01:29:48;102654.00;;;-3.66;100.00
68594;BME280;55563;52.416;13.548;2023-03-01T01:31:49;102643.47;;;-3.74;100.00
68594;BME280;55563;52.416;13.548;2023-03-01T01:33:50;102649.78;;;-3.78;100.00
68594;BME280;55563;52.416;13.548;2023-03-01T01:35:51;102642.66;;;-3.85;100.00
68594;BME280;55563;52.416;13.548;2023-03-01T01:37:52;102636.25;;;-3.80;100.00
68594;BME280;55563;52.416;13.548;2023-03-01T01:39:53;102637.75;;;-3.77;100.00
68594;BME280;55563;52.416;13.548;2023-03-01T01:41:54;102643.84;;;-3.67;100.00
68594;BME280;55563;52.416;13.548;2023-03-01T01:46:31;102641.38;;;-3.69;100.00
68594;BME280;55563;52.416;13.548;2023-03-01T01:48:39;102642.09;;;-3.67;100.00
68594;BME280;55563;52.416;13.548;2023-03-01T01:50:41;102641.16;;;-3.66;100.00
68594;BME280;55563;52.416;13.548;2023-03-01T01:52:48;102642.81;;;-3.65;100.00
68594;BME280;55563;52.416;13.548;2023-03-01T01:54:59;102648.03;;;-3.77;100.00
68594;BME280;55563;52.416;13.548;2023-03-01T01:57:05;102654.09;;;-3.89;100.00
68594;BME280;55563;52.416;13.548;2023-03-01T01:59:08;102650.72;;;-3.90;100.00
68594;BME280;55563;52.416;13.548;2023-03-01T02:01:10;102643.72;;;-3.77;100.00
68594;BME280;55563;52.416;13.548;2023-03-01T02:03:14;102639.41;;;-3.76;100.00
68594;BME280;55563;52.416;13.548;2023-03-01T02:05:26;102652.25;;;-3.76;100.00
68594;BME280;55563;52.416;13.548;2023-03-01T02:07:30;102648.84;;;-3.77;100.00
68594;BME280;55563;52.416;13.548;2023-03-01T02:09:32;102645.34;;;-3.76;100.00
68594;BME280;55563;52.416;13.548;2023-03-01T02:11:33;102649.66;;;-3.76;100.00
68594;BME280;55563;52.416;13.548;2023-03-01T02:13:34;102645.47;;;-3.77;100.00
68594;BME280;55563;52.416;13.548;2023-03-01T02:15:36;102641.25;;;-3.78;100.00
68594;BME280;55563;52.416;13.548;2023-03-01T02:17:38;102643.47;;;-3.74;100.00
68594;BME280;55563;52.416;13.548;2023-03-01T02:22:20;102638.56;;;-3.77;100.00
68594;BME280;55563;52.416;13.548;2023-03-01T02:26:57;102635.06;;;-3.87;100.00
68594;BME280;55563;52.416;13.548;2023-03-01T02:29:01;102636.22;;;-3.91;100.00
68594;BME280;55563;52.416;13.548;2023-03-01T02:31:04;102633.91;;;-3.94;100.00
68594;BME280;55563;52.416;13.548;2023-03-01T02:33:26;102638.97;;;-4.16;100.00
68594;BME280;55563;52.416;13.548;2023-03-01T02:35:33;102641.88;;;-4.21;100.00
68594;BME280;55563;52.416;13.548;2023-03-01T02:37:36;102642.69;;;-4.20;100.00
68594;BME280;55563;52.416;13.548;2023-03-01T02:39:39;102642.84;;;-4.11;100.00
68594;BME280;55563;52.416;13.548;2023-03-01T02:41:46;102641.44;;;-4.15;100.00
68594;BME280;55563;52.416;13.548;2023-03-01T02:43:48;102644.25;;;-4.18;100.00
68594;BME280;55563;52.416;13.548;2023-03-01T02:45:50;102646.03;;;-4.42;100.00
68594;BME280;55563;52.416;13.548;2023-03-01T02:47:55;102642.00;;;-4.22;100.00
68594;BME280;55563;52.416;13.548;2023-03-01T02:49:56;102642.59;;;-4.19;100.00
68594;BME280;55563;52.416;13.548;2023-03-01T02:52:21;102649.00;;;-4.24;100.00
68594;BME280;55563;52.416;13.548;2023-03-01T02:54:46;102639.63;;;-4.36;100.00
68594;BME280;55563;52.416;13.548;2023-03-01T02:56:49;102642.34;;;-4.27;100.00
68594;BME280;55563;52.416;13.548;2023-03-01T02:58:53;102639.44;;;-4.22;100.00
68594;BME280;55563;52.416;13.548;2023-03-01T03:00:54;102631.41;;;-4.18;100.00
68594;BME280;55563;52.416;13.548;2023-03-01T03:02:56;102628.69;;;-4.16;100.00
68594;BME280;55563;52.416;13.548;2023-03-01T03:04:58;102628.84;;;-4.18;100.00
68594;BME280;55563;52.416;13.548;2023-03-01T03:06:59;102619.69;;;-4.22;100.00
68594;BME280;55563;52.416;13.548;2023-03-01T03:09:00;102628.34;;;-4.23;100.00
68594;BME280;55563;52.416;13.548;2023-03-01T03:11:02;102623.31;;;-4.24;100.00
68594;BME280;55563;52.416;13.548;2023-03-01T03:13:07;102620.84;;;-4.26;100.00
68594;BME280;55563;52.416;13.548;2023-03-01T03:15:10;102620.66;;;-4.23;100.00
68594;BME280;55563;52.416;13.548;2023-03-01T03:17:13;102623.44;;;-4.26;100.00
68594;BME280;55563;52.416;13.548;2023-03-01T03:19:14;102633.25;;;-4.20;100.00
68594;BME280;55563;52.416;13.548;2023-03-01T03:21:16;102627.09;;;-4.17;100.00
68594;BME280;55563;52.416;13.548;2023-03-01T03:23:19;102620.84;;;-4.26;100.00
68594;BME280;55563;52.416;13.548;2023-03-01T03:25:22;102620.28;;;-4.29;100.00
68594;BME280;55563;52.416;13.548;2023-03-01T03:27:24;102621.53;;;-4.35;100.00
68594;BME280;55563;52.416;13.548;2023-03-01T03:29:26;102618.03;;;-4.34;100.00
68594;BME280;55563;52.416;13.548;2023-03-01T03:31:27;102614.56;;;-4.33;100.00
68594;BME280;55563;52.416;13.548;2023-03-01T03:33:27;102616.88;;;-4.30;100.00
68594;BME280;55563;52.416;13.548;2023-03-01T03:35:30;102604.06;;;-4.30;100.00
68594;BME280;55563;52.416;13.548;2023-03-01T03:37:31;102603.22;;;-4.30;100.00
68594;BME280;55563;52.416;13.548;2023-03-01T03:39:52;102605.31;;;-4.35;100.00
68594;BME280;55563;52.416;13.548;2023-03-01T03:41:55;102609.88;;;-4.39;100.00
68594;BME280;55563;52.416;13.548;2023-03-01T03:43:55;102608.13;;;-4.38;100.00
68594;BME280;55563;52.416;13.548;2023-03-01T03:45:56;102599.84;;;-4.42;100.00
68594;BME280;55563;52.416;13.548;2023-03-01T03:47:58;102601.59;;;-4.43;100.00
68594;BME280;55563;52.416;13.548;2023-03-01T03:49:58;102601.44;;;-4.41;100.00
68594;BME280;55563;52.416;13.548;2023-03-01T03:51:59;102599.69;;;-4.41;100.00
68594;BME280;55563;52.416;13.548;2023-03-01T03:54:00;102592.00;;;-4.41;100.00
68594;BME280;55563;52.416;13.548;2023-03-01T03:56:01;102592.13;;;-4.42;100.00
68594;BME280;55563;52.416;13.548;2023-03-01T03:58:02;102583.03;;;-4.46;100.00
68594;BME280;55563;52.416;13.548;2023-03-01T04:00:10;102595.25;;;-4.50;100.00
68594;BME280;55563;52.416;13.548;2023-03-01T04:02:24;102591.16;;;-4.52;100.00
68594;BME280;55563;52.416;13.548;2023-03-01T04:04:25;102580.09;;;-4.53;100.00
68594;BME280;55563;52.416;13.548;2023-03-01T04:06:26;102584.16;;;-4.50;100.00
68594;BME280;55563;52.416;13.548;2023-03-01T04:08:27;102580.88;;;-4.63;100.00
68594;BME280;55563;52.416;13.548;2023-03-01T04:10:30;102584.44;;;-4.77;100.00
68594;BME280;55563;52.416;13.548;2023-03-01T04:12:31;102583.50;;;-4.76;100.00
68594;BME280;55563;52.416;13.548;2023-03-01T04:14:34;102593.63;;;-4.74;100.00
68594;BME280;55563;52.416;13.548;2023-03-01T04:16:35;102584.88;;;-4.83;100.00
68594;BME280;55563;52.416;13.548;2023-03-01T04:18:35;102592.13;;;-4.77;100.00
68594;BME280;55563;52.416;13.548;2023-03-01T04:20:36;102586.66;;;-4.72;100.00
68594;BME280;55563;52.416;13.548;2023-03-01T04:22:37;102581.31;;;-4.69;100.00
68594;BME280;55563;52.416;13.548;2023-03-01T04:24:38;102583.66;;;-4.66;100.00
68594;BME280;55563;52.416;13.548;2023-03-01T04:26:39;102580.38;;;-4.68;100.00
68594;BME280;55563;52.416;13.548;2023-03-01T04:28:41;102582.25;;;-4.70;100.00
68594;BME280;55563;52.416;13.548;2023-03-01T04:30:47;102574.75;;;-4.73;100.00
68594;BME280;55563;52.416;13.548;2023-03-01T04:32:48;102577.75;;;-4.79;100.00
68594;BME280;55563;52.416;13.548;2023-03-01T04:34:50;102580.13;;;-4.76;100.00
68594;BME280;55563;52.416;13.548;2023-03-01T04:36:51;102575.81;;;-4.76;100.00
68594;BME280;55563;52.416;13.548;2023-03-01T04:38:52;102579.78;;;-4.72;100.00
68594;BME280;55563;52.416;13.548;2023-03-01T04:40:53;102574.44;;;-4.69;100.00
68594;BME280;55563;52.416;13.548;2023-03-01T04:42:53;102571.84;;;-4.69;100.00
68594;BME280;55563;52.416;13.548;2023-03-01T04:44:54;102573.84;;;-4.72;100.00
68594;BME280;55563;52.416;13.548;2023-03-01T04:46:55;102574.88;;;-4.99;100.00
68594;BME280;55563;52.416;13.548;2023-03-01T04:48:55;102580.22;;;-5.02;100.00
68594;BME280;55563;52.416;13.548;2023-03-01T04:50:56;102573.47;;;-5.03;100.00
68594;BME280;55563;52.416;13.548;2023-03-01T04:52:58;102570.06;;;-5.03;100.00
68594;BME280;55563;52.416;13.548;2023-03-01T04:54:59;102569.16;;;-5.02;100.00
68594;BME280;55563;52.416;13.548;2023-03-01T04:57:00;102574.69;;;-4.96;100.00
68594;BME280;55563;52.416;13.548;2023-03-01T04:59:01;102581.66;;;-4.98;100.00
68594;BME280;55563;52.416;13.548;2023-03-01T05:01:12;102578.25;;;-4.98;100.00
68594;BME280;55563;52.416;13.548;2023-03-01T05:03:16;102572.53;;;-5.02;100.00
68594;BME280;55563;52.416;13.548;2023-03-01T05:05:22;102579.31;;;-5.01;100.00
68594;BME280;55563;52.416;13.548;2023-03-01T05:07:25;102575.59;;;-4.97;100.00
68594;BME280;55563;52.416;13.548;2023-03-01T05:09:26;102575.69;;;-4.98;100.00
68594;BME280;55563;52.416;13.548;2023-03-01T05:11:27;102577.91;;;-5.05;100.00
68594;BME280;55563;52.416;13.548;2023-03-01T05:13:32;102577.41;;;-5.10;100.00
68594;BME280;55563;52.416;13.548;2023-03-01T05:15:32;102574.63;;;-5.07;100.00
68594;BME280;55563;52.416;13.548;2023-03-01T05:17:33;102578.72;;;-5.04;100.00
68594;BME280;55563;52.416;13.548;2023-03-01T05:19:34;102575.34;;;-5.05;100.00
68594;BME280;55563;52.416;13.548;2023-03-01T05:21:35;102572.59;;;-5.14;100.00
68594;BME280;55563;52.416;13.548;2023-03-01T05:23:56;102579.78;;;-5.19;100.00
68594;BME280;55563;52.416;13.548;2023-03-01T05:25:58;102586.88;;;-5.23;100.00
68594;BME280;55563;52.416;13.548;2023-03-01T05:28:02;102578.41;;;-5.12;100.00
68594;BME280;55563;52.416;13.548;2023-03-01T05:30:05;102568.66;;;-5.07;100.00
68594;BME280;55563;52.416;13.548;2023-03-01T05:32:14;102563.75;;;-5.10;100.00
68594;BME280;55563;52.416;13.548;2023-03-01T05:34:16;102562.63;;;-5.06;100.00
68594;BME280;55563;52.416;13.548;2023-03-01T05:36:16;102563.44;;;-5.06;100.00
68594;BME280;55563;52.416;13.548;2023-03-01T05:38:20;102561.09;;;-5.09;100.00
68594;BME280;55563;52.416;13.548;2023-03-01T05:40:22;102552.69;;;-5.11;100.00
68594;BME280;55563;52.416;13.548;2023-03-01T05:42:24;102561.31;;;-5.12;100.00
68594;BME280;55563;52.416;13.548;2023-03-01T05:44:25;102550.22;;;-5.12;100.00
68594;BME280;55563;52.416;13.548;2023-03-01T05:46:26;102557.00;;;-5.11;100.00
68594;BME280;55563;52.416;13.548;2023-03-01T05:48:27;102556.78;;;-5.08;100.00
68594;BME280;55563;52.416;13.548;2023-03-01T05:50:29;102560.06;;;-5.06;100.00
68594;BME280;55563;52.416;13.548;2023-03-01T05:52:30;102563.34;;;-5.04;100.00
68594;BME280;55563;52.416;13.548;2023-03-01T05:54:31;102563.34;;;-5.04;100.00
68594;BME280;55563;52.416;13.548;2023-03-01T05:56:36;102561.59;;;-5.04;100.00
68594;BME280;55563;52.416;13.548;2023-03-01T05:58:37;102577.28;;;-5.08;100.00
68594;BME280;55563;52.416;13.548;2023-03-01T06:00:38;102578.41;;;-5.12;100.00
68594;BME280;55563;52.416;13.548;2023-03-01T06:02:40;102573.38;;;-5.01;100.00
68594;BME280;55563;52.416;13.548;2023-03-01T06:04:41;102560.72;;;-4.92;100.00
68594;BME280;55563;52.416;13.548;2023-03-01T06:06:41;102562.22;;;-4.89;100.00
68594;BME280;55563;52.416;13.548;2023-03-01T06:08:42;102561.09;;;-4.85;100.00
68594;BME280;55563;52.416;13.548;2023-03-01T06:10:43;102564.25;;;-4.81;100.00
68594;BME280;55563;52.416;13.548;2023-03-01T06:12:44;102566.25;;;-4.74;100.00
68594;BME280;55563;52.416;13.548;2023-03-01T06:14:45;102570.56;;;-4.74;100.00
68594;BME280;55563;52.416;13.548;2023-03-01T06:16:47;102561.41;;;-4.66;100.00
68594;BME280;55563;52.416;13.548;2023-03-01T06:18:48;102569.81;;;-4.53;100.00
68594;BME280;55563;52.416;13.548;2023-03-01T06:20:54;102569.50;;;-4.48;100.00
68594;BME280;55563;52.416;13.548;2023-03-01T06:22:56;102561.69;;;-4.47;100.00
68594;BME280;55563;52.416;13.548;2023-03-01T06:24:56;102563.56;;;-4.37;100.00
68594;BME280;55563;52.416;13.548;2023-03-01T06:26:57;102564.88;;;-4.21;100.00
68594;BME280;55563;52.416;13.548;2023-03-01T06:28:58;102560.47;;;-4.08;100.00
68594;BME280;55563;52.416;13.548;2023-03-01T06:30:59;102566.44;;;-3.85;100.00
68594;BME280;55563;52.416;13.548;2023-03-01T06:33:00;102563.91;;;-2.88;100.00
68594;BME280;55563;52.416;13.548;2023-03-01T06:35:01;102557.34;;;-1.88;100.00
68594;BME280;55563;52.416;13.548;2023-03-01T06:37:02;102564.31;;;-0.62;100.00
68594;BME280;55563;52.416;13.548;2023-03-01T06:39:06;102562.47;;;0.23;100.00
68594;BME280;55563;52.416;13.548;2023-03-01T06:41:07;102556.72;;;0.74;100.00
68594;BME280;55563;52.416;13.548;2023-03-01T06:43:08;102566.69;;;0.15;100.00
68594;BME280;55563;52.416;13.548;2023-03-01T06:45:11;102575.03;;;-0.67;100.00
68594;BME280;55563;52.416;13.548;2023-03-01T06:47:12;102571.50;;;-0.56;100.00
68594;BME280;55563;52.416;13.548;2023-03-01T06:49:13;102567.16;;;-0.75;100.00
68594;BME280;55563;52.416;13.548;2023-03-01T06:51:13;102562.41;;;-0.99;100.00
68594;BME280;55563;52.416;13.548;2023-03-01T06:53:14;102568.09;;;-1.24;100.00
68594;BME280;55563;52.416;13.548;2023-03-01T06:55:15;102560.88;;;-1.40;100.00
68594;BME280;55563;52.416;13.548;2023-03-01T06:57:16;102560.28;;;-1.53;100.00
68594;BME280;55563;52.416;13.548;2023-03-01T06:59:17;102562.59;;;-1.59;100.00
68594;BME280;55563;52.416;13.548;2023-03-01T07:01:18;102566.94;;;-1.60;100.00
68594;BME280;55563;52.416;13.548;2023-03-01T07:03:19;102566.22;;;-0.83;100.00
68594;BME280;55563;52.416;13.548;2023-03-01T07:05:20;102572.97;;;-0.25;100.00
68594;BME280;55563;52.416;13.548;2023-03-01T07:07:21;102576.13;;;-0.50;100.00
68594;BME280;55563;52.416;13.548;2023-03-01T07:09:23;102573.66;;;-1.09;100.00
68594;BME280;55563;52.416;13.548;2023-03-01T07:11:24;102574.03;;;-1.43;100.00
68594;BME280;55563;52.416;13.548;2023-03-01T07:13:25;102578.06;;;-1.59;100.00
68594;BME280;55563;52.416;13.548;2023-03-01T07:15:26;102580.72;;;-1.70;100.00
68594;BME280;55563;52.416;13.548;2023-03-01T07:17:27;102574.59;;;-1.79;100.00
68594;BME280;55563;52.416;13.548;2023-03-01T07:19:28;102573.50;;;-1.77;100.00
68594;BME280;55563;52.416;13.548;2023-03-01T07:21:28;102577.44;;;-1.72;100.00
68594;BME280;55563;52.416;13.548;2023-03-01T07:23:29;102585.34;;;-1.74;100.00
68594;BME280;55563;52.416;13.548;2023-03-01T07:25:30;102589.41;;;-1.71;100.00
68594;BME280;55563;52.416;13.548;2023-03-01T07:27:31;102585.22;;;-1.63;100.00
68594;BME280;55563;52.416;13.548;2023-03-01T07:29:31;102582.09;;;-1.66;100.00
68594;BME280;55563;52.416;13.548;2023-03-01T07:31:32;102580.63;;;-1.59;100.00
68594;BME280;55563;52.416;13.548;2023-03-01T07:33:33;102589.19;;;-1.59;100.00
68594;BME280;55563;52.416;13.548;2023-03-01T07:35:34;102594.47;;;-1.60;100.00
68594;BME280;55563;52.416;13.548;2023-03-01T07:37:35;102589.47;;;-1.52;100.00
68594;BME280;55563;52.416;13.548;2023-03-01T07:39:35;102583.41;;;-1.42;100.00
68594;BME280;55563;52.416;13.548;2023-03-01T07:41:36;102584.78;;;-1.28;100.00
68594;BME280;55563;52.416;13.548;2023-03-01T07:43:37;102588.34;;;-1.10;100.00
68594;BME280;55563;52.416;13.548;2023-03-01T07:45:37;102589.44;;;-0.93;100.00
68594;BME280;55563;52.416;13.548;2023-03-01T07:47:38;102584.72;;;-0.69;100.00
68594;BME280;55563;52.416;13.548;2023-03-01T07:49:39;102589.47;;;-0.83;100.00
68594;BME280;55563;52.416;13.548;2023-03-01T07:51:39;102581.03;;;-0.66;100.00
68594;BME280;55563;52.416;13.548;2023-03-01T07:53:40;102579.25;;;-0.66;100.00
68594;BME280;55563;52.416;13.548;2023-03-01T07:55:41;102579.25;;;-0.56;100.00
68594;BME280;55563;52.416;13.548;2023-03-01T07:58:01;102581.00;;;-0.47;100.00
68594;BME280;55563;52.416;13.548;2023-03-01T08:00:04;102581.56;;;-0.43;100.00
68594;BME280;55563;52.416;13.548;2023-03-01T08:02:15;102581.38;;;-0.32;100.00
68594;BME280;55563;52.416;13.548;2023-03-01T08:04:16;102583.72;;;-0.29;100.00
68594;BME280;55563;52.416;13.548;2023-03-01T08:06:18;102576.75;;;-0.19;100.00
68594;BME280;55563;52.416;13.548;2023-03-01T08:08:19;102578.34;;;0.28;100.00
68594;BME280;55563;52.416;13.548;2023-03-01T08:10:20;102576.78;;;0.18;100.00
68594;BME280;55563;52.416;13.548;2023-03-01T08:12:20;102584.34;;;0.19;100.00
68594;BME280;55563;52.416;13.548;2023-03-01T08:14:21;102574.41;;;0.24;100.00
68594;BME280;55563;52.416;13.548;2023-03-01T08:16:22;102575.81;;;0.19;100.00
68594;BME280;55563;52.416;13.548;2023-03-01T08:18:25;102570.59;;;0.28;100.00
68594;BME280;55563;52.416;13.548;2023-03-01T08:20:26;102576.53;;;0.38;100.00
68594;BME280;55563;52.416;13.548;2023-03-01T08:22:26;102561.69;;;1.03;100.00
68594;BME280;55563;52.416;13.548;2023-03-01T08:24:27;102557.94;;;2.85;100.00
68594;BME280;55563;52.416;13.548;2023-03-01T08:26:28;102553.47;;;4.07;100.00
68594;BME280;55563;52.416;13.548;2023-03-01T08:28:29;102554.91;;;3.14;100.00
68594;BME280;55563;52.416;13.548;2023-03-01T08:30:30;102550.03;;;3.35;100.00
68594;BME280;55563;52.416;13.548;2023-03-01T08:32:36;102556.44;;;2.58;100.00
68594;BME280;55563;52.416;13.548;2023-03-01T08:34:37;102560.84;;;1.38;100.00
68594;BME280;55563;52.416;13.548;2023-03-01T08:36:40;102549.50;;;0.96;100.00
68594;BME280;55563;52.416;13.548;2023-03-01T08:38:41;102558.81;;;1.24;100.00
68594;BME280;55563;52.416;13.548;2023-03-01T08:40:42;102555.97;;;1.35;100.00
68594;BME280;55563;52.416;13.548;2023-03-01T08:42:42;102549.88;;;1.70;100.00
68594;BME280;55563;52.416;13.548;2023-03-01T08:44:43;102550.88;;;1.08;100.00
68594;BME280;55563;52.416;13.548;2023-03-01T08:46:44;102554.75;;;0.86;100.00
68594;BME280;55563;52.416;13.548;2023-03-01T08:48:45;102555.38;;;1.06;100.00
68594;BME280;55563;52.416;13.548;2023-03-01T08:50:46;102551.63;;;1.00;100.00
68594;BME280;55563;52.416;13.548;2023-03-01T08:52:47;102556.28;;;0.97;100.00
68594;BME280;55563;52.416;13.548;2023-03-01T08:54:48;102548.97;;;0.92;100.00
68594;BME280;55563;52.416;13.548;2023-03-01T08:56:49;102545.31;;;1.38;100.00
68594;BME280;55563;52.416;13.548;2023-03-01T08:58:50;102550.09;;;1.77;100.00
68594;BME280;55563;52.416;13.548;2023-03-01T09:00:50;102546.09;;;1.82;100.00
68594;BME280;55563;52.416;13.548;2023-03-01T09:02:51;102550.75;;;1.79;100.00
68594;BME280;55563;52.416;13.548;2023-03-01T09:04:52;102546.31;;;1.45;100.00
68594;BME280;55563;52.416;13.548;2023-03-01T09:06:53;102544.53;;;1.20;100.00
68594;BME280;55563;52.416;13.548;2023-03-01T09:08:53;102542.53;;;1.57;100.00
68594;BME280;55563;52.416;13.548;2023-03-01T09:10:55;102542.72;;;1.64;100.00
68594;BME280;55563;52.416;13.548;2023-03-01T09:12:56;102532.56;;;1.70;100.00
68594;BME280;55563;52.416;13.548;2023-03-01T09:14:57;102532.00;;;1.85;100.00
68594;BME280;55563;52.416;13.548;2023-03-01T09:16:57;102531.59;;;1.46;100.00
68594;BME280;55563;52.416;13.548;2023-03-01T09:18:58;102529.41;;;1.33;100.00
68594;BME280;55563;52.416;13.548;2023-03-01T09:21:06;102523.72;;;1.55;100.00
68594;BME280;55563;52.416;13.548;2023-03-01T09:23:08;102528.63;;;1.41;100.00
68594;BME280;55563;52.416;13.548;2023-03-01T09:25:09;102530.41;;;1.40;100.00
68594;BME280;55563;52.416;13.548;2023-03-01T09:27:10;102523.44;;;1.92;100.00
68594;BME280;55563;52.416;13.548;2023-03-01T09:29:10;102529.19;;;2.12;100.00
68594;BME280;55563;52.416;13.548;2023-03-01T09:31:12;102534.03;;;1.73;100.00
68594;BME280;55563;52.416;13.548;2023-03-01T09:33:14;102535.19;;;1.79;100.00
68594;BME280;55563;52.416;13.548;2023-03-01T09:35:15;102521.88;;;1.73;100.00
68594;BME280;55563;52.416;13.548;2023-03-01T09:37:15;102525.63;;;2.05;100.00
68594;BME280;55563;52.416;13.548;2023-03-01T09:39:16;102526.81;;;2.27;100.00
68594;BME280;55563;52.416;13.548;2023-03-01T09:41:38;102514.03;;;2.25;100.00
68594;BME280;55563;52.416;13.548;2023-03-01T09:43:50;102515.41;;;2.11;100.00
68594;BME280;55563;52.416;13.548;2023-03-01T09:45:55;102517.19;;;2.53;100.00
68594;BME280;55563;52.416;13.548;2023-03-01T09:48:00;102516.97;;;2.38;100.00
68594;BME280;55563;52.416;13.548;2023-03-01T09:50:22;102513.91;;;2.43;100.00
68594;BME280;55563;52.416;13.548;2023-03-01T09:52:30;102516.84;;;2.56;100.00
68594;BME280;55563;52.416;13.548;2023-03-01T09:54:34;102507.47;;;2.79;100.00
68594;BME280;55563;52.416;13.548;2023-03-01T09:56:42;102522.22;;;2.79;100.00
68594;BME280;55563;52.416;13.548;2023-03-01T09:59:23;102518.69;;;3.04;100.00
68594;BME280;55563;52.416;13.548;2023-03-01T10:01:32;102525.16;;;3.32;100.00
68594;BME280;55563;52.416;13.548;2023-03-01T10:03:41;102524.84;;;3.43;100.00
68594;BME280;55563;52.416;13.548;2023-03-01T10:10:43;102514.53;;;4.98;100.00
68594;BME280;55563;52.416;13.548;2023-03-01T10:12:45;102514.59;;;4.90;100.00
68594;BME280;55563;52.416;13.548;2023-03-01T10:20:09;102516.78;;;4.55;86.94
68594;BME280;55563;52.416;13.548;2023-03-01T10:22:18;102529.97;;;4.23;82.85
68594;BME280;55563;52.416;13.548;2023-03-01T10:24:21;102523.22;;;4.36;84.50
68594;BME280;55563;52.416;13.548;2023-03-01T10:27:11;102519.53;;;4.31;89.19
68594;BME280;55563;52.416;13.548;2023-03-01T10:29:15;102519.47;;;4.70;92.16
68594;BME280;55563;52.416;13.548;2023-03-01T10:31:23;102519.03;;;4.81;92.23
68594;BME280;55563;52.416;13.548;2023-03-01T10:33:32;102513.81;;;4.89;91.59
68594;BME280;55563;52.416;13.548;2023-03-01T10:35:33;102507.72;;;4.74;84.01
68594;BME280;55563;52.416;13.548;2023-03-01T10:37:35;102509.53;;;5.11;92.73
68594;BME280;55563;52.416;13.548;2023-03-01T10:40:08;102499.47;;;5.08;90.22
68594;BME280;55563;52.416;13.548;2023-03-01T10:42:29;102501.22;;;5.30;90.46
68594;BME280;55563;52.416;13.548;2023-03-01T10:44:41;102498.53;;;5.38;77.25
68594;BME280;55563;52.416;13.548;2023-03-01T10:46:42;102495.16;;;5.15;63.31